Time;durP1;ratioP1;P1;durP2;ratioP2;P2;SDS_P1;SDS_P2;PMS_P1;PMS_P2;Temp;Humidity;BMP_temperature;BMP_pressure;BME280_temperature;BME280_humidity;BME280_pressure;Samples;Min_cycle;Max_cycle;Signal;HPM_P1;HPM_P2
2022/04/30 00:00:34;;;;;;;8.80;4.22;;;;;;;15.43;56.81;102806.97;5068921;28;20044;-57
2022/04/30 00:03:00;;;;;;;19.95;7.20;;;;;;;15.49;56.65;102808.97;5075418;28;20037;-56
2022/04/30 00:05:32;;;;;;;11.32;3.85;;;;;;;15.55;57.04;102810.94;5069263;28;20096;-54
2022/04/30 00:07:58;;;;;;;10.32;4.32;;;;;;;15.60;56.90;102805.84;5062280;28;20101;-56
2022/04/30 00:10:24;;;;;;;9.50;4.20;;;;;;;15.43;57.95;102806.97;5060782;28;20048;-56
2022/04/30 00:12:50;;;;;;;9.10;4.40;;;;;;;15.31;58.48;102807.41;5067723;28;20037;-52
2022/04/30 00:15:15;;;;;;;10.73;4.60;;;;;;;15.32;59.29;102803.69;5075925;28;20036;-56
2022/04/30 00:17:41;;;;;;;11.63;4.60;;;;;;;15.25;60.20;102807.28;5091438;28;20048;-55
2022/04/30 00:20:07;;;;;;;11.80;5.33;;;;;;;15.26;60.42;102804.44;5083304;28;20071;-56
2022/04/30 00:22:34;;;;;;;11.27;4.47;;;;;;;15.19;60.76;102807.00;5084989;28;20037;-56
2022/04/30 00:24:59;;;;;;;10.18;4.45;;;;;;;15.03;62.48;102802.53;5090579;28;20036;-57
2022/04/30 00:27:24;;;;;;;10.40;4.63;;;;;;;14.91;63.86;102802.09;5079005;28;20063;-56
2022/04/30 00:29:50;;;;;;;15.13;4.60;;;;;;;15.09;62.95;102805.53;5089808;28;20040;-55
2022/04/30 00:32:16;;;;;;;12.38;4.50;;;;;;;15.05;63.57;102799.66;5084491;28;20033;-56
2022/04/30 00:34:42;;;;;;;9.37;4.70;;;;;;;15.04;64.10;102795.28;5083513;28;20043;-56
2022/04/30 00:37:07;;;;;;;15.37;4.73;;;;;;;15.10;64.04;102799.13;5091428;28;20261;-56
2022/04/30 00:39:35;;;;;;;13.67;5.37;;;;;;;15.04;64.37;102795.28;5078681;28;20056;-55
2022/04/30 00:42:02;;;;;;;13.68;4.75;;;;;;;14.96;65.67;102793.47;5080695;28;20274;-55
2022/04/30 00:44:27;;;;;;;7.65;4.30;;;;;;;14.98;65.66;102791.44;5085580;28;20012;-51
2022/04/30 00:46:54;;;;;;;14.60;5.88;;;;;;;14.96;65.98;102788.09;5081625;28;20059;-57
2022/04/30 00:49:20;;;;;;;13.52;5.93;;;;;;;15.00;66.14;102778.66;5091498;28;20074;-54
2022/04/30 00:51:48;;;;;;;14.50;4.80;;;;;;;15.03;66.32;102783.69;5078671;28;20033;-53
2022/04/30 00:54:17;;;;;;;16.42;6.13;;;;;;;15.02;66.06;102782.00;5086836;28;20021;-54
2022/04/30 00:57:13;;;;;;;14.40;5.22;;;;;;;14.99;66.86;102779.66;5087638;28;20097;-55
2022/04/30 00:59:40;;;;;;;11.25;5.82;;;;;;;14.89;67.84;102776.34;5064798;28;20044;-55
2022/04/30 01:02:09;;;;;;;14.65;6.03;;;;;;;14.93;68.35;102776.84;5069264;28;20047;-54
2022/04/30 01:04:54;;;;;;;12.82;5.18;;;;;;;14.83;69.18;102777.88;5081383;28;20043;-53
2022/04/30 01:07:21;;;;;;;17.65;5.45;;;;;;;14.80;69.61;102775.53;5091422;28;20059;-56
2022/04/30 01:09:48;;;;;;;11.53;5.60;;;;;;;14.74;70.30;102774.38;5079490;28;20037;-54
2022/04/30 01:12:15;;;;;;;14.73;5.55;;;;;;;14.77;70.32;102774.06;5086654;28;20285;-55
2022/04/30 01:14:41;;;;;;;;;;;;;;;14.68;70.57;102772.38;5075558;28;20032;-55
2022/04/30 01:17:08;;;;;;;11.65;5.88;;;;;;;14.74;70.57;102769.00;5075219;28;19920;-54
2022/04/30 01:19:38;;;;;;;15.52;6.20;;;;;;;14.79;70.91;102775.75;5074255;28;20045;-54
2022/04/30 01:22:09;;;;;;;14.20;6.00;;;;;;;14.75;71.10;102770.69;5081530;28;20070;-52
2022/04/30 01:24:37;;;;;;;11.00;5.95;;;;;;;14.70;71.61;102767.66;5083838;28;20041;-53
2022/04/30 01:27:05;;;;;;;13.98;6.22;;;;;;;14.72;71.57;102768.34;5089211;28;20039;-53
2022/04/30 01:29:31;;;;;;;11.75;4.85;;;;;;;14.86;71.07;102768.63;5077207;28;20048;-52
2022/04/30 01:37:27;;;;;;;11.60;6.00;;;;;;;14.91;70.35;102759.00;5082284;28;20035;-54
2022/04/30 01:40:03;;;;;;;10.55;6.20;;;;;;;14.85;71.24;102753.47;5079587;28;20097;-53
2022/04/30 01:42:35;;;;;;;12.73;6.40;;;;;;;14.73;72.03;102753.84;5084242;28;20067;-52
2022/04/30 01:45:00;;;;;;;15.98;7.32;;;;;;;14.68;73.37;102753.53;5088967;28;20044;-52
2022/04/30 01:47:28;;;;;;;17.17;6.63;;;;;;;14.74;72.79;102749.31;5077803;28;20052;-51
2022/04/30 01:49:53;;;;;;;20.02;7.30;;;;;;;14.76;72.82;102755.38;5088475;28;20049;-53
2022/04/30 01:52:19;;;;;;;15.23;6.47;;;;;;;14.75;73.30;102751.81;5078160;28;20528;-51
2022/04/30 01:54:45;;;;;;;14.20;7.13;;;;;;;14.69;73.51;102749.81;5082147;28;20032;-55
2022/04/30 01:57:12;;;;;;;16.95;6.40;;;;;;;14.73;73.79;102755.72;5089969;28;20028;-54
2022/04/30 01:59:38;;;;;;;19.70;6.90;;;;;;;14.64;74.01;102744.13;5077610;28;20055;-56
2022/04/30 02:02:05;;;;;;;17.15;7.47;;;;;;;14.67;74.59;102741.06;5087725;28;20043;-53
2022/04/30 02:04:32;;;;;;;16.02;6.97;;;;;;;14.54;76.29;102741.66;5093988;28;20036;-54
2022/04/30 02:06:59;;;;;;;17.65;7.47;;;;;;;14.70;75.37;102738.03;5079955;28;20041;-54
2022/04/30 02:09:28;;;;;;;12.27;6.65;;;;;;;14.81;74.31;102744.06;5085334;28;20052;-56
2022/04/30 02:11:57;;;;;;;21.33;7.28;;;;;;;14.74;74.74;102738.56;5084326;28;20039;-54
2022/04/30 02:14:24;;;;;;;16.50;6.82;;;;;;;14.84;74.51;102735.63;5084752;28;20039;-51
2022/04/30 02:16:50;;;;;;;18.30;6.90;;;;;;;14.76;75.46;102742.75;5087106;28;20047;-51
2022/04/30 02:19:16;;;;;;;20.05;7.80;;;;;;;14.77;75.86;102736.34;5077134;28;20116;-55
2022/04/30 02:21:42;;;;;;;16.98;7.63;;;;;;;14.65;76.84;102737.72;5089755;28;20088;-57
2022/04/30 02:24:08;;;;;;;17.45;8.13;;;;;;;14.68;76.30;102731.97;5080784;28;20024;-53
2022/04/30 02:26:33;;;;;;;17.63;7.88;;;;;;;14.77;75.86;102735.50;5083474;28;20036;-54
2022/04/30 02:28:59;;;;;;;18.20;7.50;;;;;;;14.79;75.59;102727.25;5088054;28;20041;-53
2022/04/30 02:31:26;;;;;;;20.97;7.60;;;;;;;14.71;76.02;102720.88;5075931;28;20068;-56
2022/04/30 02:33:56;;;;;;;22.33;7.97;;;;;;;14.71;76.07;102722.75;5073722;28;20033;-56
2022/04/30 02:36:26;;;;;;;15.60;7.57;;;;;;;14.65;76.70;102726.94;5082591;28;20048;-49
2022/04/30 02:38:56;;;;;;;13.52;6.45;;;;;;;14.56;78.03;102714.56;5080863;28;20033;-51
2022/04/30 02:41:22;;;;;;;15.32;7.30;;;;;;;14.67;77.16;102713.31;5092102;28;20036;-52
2022/04/30 02:43:51;;;;;;;18.48;6.82;;;;;;;14.61;77.83;102722.94;5081521;28;20111;-53
2022/04/30 02:46:19;;;;;;;16.50;7.45;;;;;;;14.57;78.84;102714.38;5089485;28;20037;-53
2022/04/30 02:48:46;;;;;;;20.10;7.65;;;;;;;14.46;79.76;102718.28;5089361;28;20036;-52
2022/04/30 02:51:11;;;;;;;15.13;6.57;;;;;;;14.30;81.71;102716.50;5082106;28;20062;-52
2022/04/30 02:53:38;;;;;;;15.63;6.78;;;;;;;14.33;81.82;102713.47;5094022;28;20041;-57
2022/04/30 02:56:07;;;;;;;17.58;8.25;;;;;;;14.33;82.04;102712.66;5082314;28;20033;-54
2022/04/30 03:01:19;;;;;;;18.27;8.00;;;;;;;14.25;82.54;102715.34;5093672;28;20043;-49
2022/04/30 03:04:03;;;;;;;15.07;7.63;;;;;;;14.34;81.19;102708.94;5069572;28;20170;-55
2022/04/30 03:06:34;;;;;;;16.70;7.17;;;;;;;14.25;81.17;102701.91;5087816;28;20040;-52
2022/04/30 03:09:00;;;;;;;15.25;7.20;;;;;;;14.24;82.32;102703.75;5090541;28;20032;-51
2022/04/30 03:11:26;;;;;;;19.57;8.17;;;;;;;14.30;81.64;102702.19;5080222;28;20037;-54
2022/04/30 03:13:52;;;;;;;15.82;7.80;;;;;;;14.24;82.26;102702.91;5089942;28;20033;-50
2022/04/30 03:21:49;;;;;;;15.70;6.85;;;;;;;14.22;82.20;102700.41;5060850;28;20029;-53
2022/04/30 03:24:17;;;;;;;19.52;8.80;;;;;;;14.14;82.88;102698.59;5084643;28;20060;-52
2022/04/30 03:26:48;;;;;;;18.58;9.40;;;;;;;14.13;82.84;102691.53;5092361;28;20043;-53
2022/04/30 03:29:18;;;;;;;20.40;7.72;;;;;;;14.14;82.84;102695.88;5080989;28;20033;-52
2022/04/30 03:31:44;;;;;;;22.00;8.18;;;;;;;14.12;82.64;102695.22;5093398;28;20093;-51
2022/04/30 03:34:12;;;;;;;19.67;7.63;;;;;;;14.03;83.99;102688.19;5083390;28;20095;-53
2022/04/30 03:36:38;;;;;;;17.05;8.80;;;;;;;13.96;85.25;102685.38;5086131;28;20037;-54
2022/04/30 03:39:04;;;;;;;17.00;8.52;;;;;;;13.97;84.79;102684.34;5091124;28;20170;-53
2022/04/30 03:41:29;;;;;;;20.33;7.90;;;;;;;13.89;85.71;102682.53;5078602;28;20045;-51
2022/04/30 03:43:55;;;;;;;20.77;7.43;;;;;;;13.87;86.05;102681.84;5081339;28;20096;-53
2022/04/30 03:46:20;;;;;;;16.40;7.77;;;;;;;13.84;86.60;102681.34;5088536;28;20116;-53
2022/04/30 03:48:47;;;;;;;18.70;7.80;;;;;;;13.81;86.77;102681.69;5087939;28;20079;-51
2022/04/30 03:51:13;;;;;;;14.50;7.65;;;;;;;13.79;86.84;102676.47;5081312;28;20064;-52
2022/04/30 03:53:42;;;;;;;21.95;8.38;;;;;;;13.82;86.80;102678.81;5092147;28;20145;-55
2022/04/30 03:56:08;;;;;;;21.52;8.10;;;;;;;13.82;87.04;102678.00;5079831;28;20036;-50
2022/04/30 03:58:33;;;;;;;19.33;8.10;;;;;;;13.76;87.37;102679.53;5076286;28;20084;-50
2022/04/30 04:00:59;;;;;;;14.73;7.75;;;;;;;13.80;86.29;102678.16;5089887;28;20104;-53
2022/04/30 04:03:26;;;;;;;20.48;7.72;;;;;;;13.69;87.57;102667.78;5079314;28;20059;-55
2022/04/30 04:05:52;;;;;;;15.30;7.45;;;;;;;13.64;88.65;102670.16;5091853;28;20039;-53
2022/04/30 04:08:20;;;;;;;18.40;8.43;;;;;;;13.54;89.97;102670.34;5083993;28;20064;-54
2022/04/30 04:10:45;;;;;;;17.23;8.57;;;;;;;13.52;90.23;102680.41;5084300;28;20067;-52
2022/04/30 04:18:39;;;;;;;14.60;8.15;;;;;;;13.56;90.32;102685.25;5084959;28;20041;-51
2022/04/30 04:21:07;;;;;;;18.95;8.23;;;;;;;13.50;91.41;102685.13;5076083;28;20071;-52
2022/04/30 04:25:58;;;;;;;23.92;8.93;;;;;;;13.60;90.31;102686.59;5077192;28;20061;-54
2022/04/30 04:26:18;;;;;;;21.58;9.10;;;;;;;13.57;90.80;102684.25;5094690;28;20043;-55
2022/04/30 04:28:45;;;;;;;17.48;8.68;;;;;;;13.68;89.55;102687.63;5084355;28;20037;-53
2022/04/30 04:31:10;;;;;;;22.65;8.80;;;;;;;13.54;90.50;102686.47;5090778;28;20037;-54
2022/04/30 04:33:36;;;;;;;21.60;8.73;;;;;;;13.39;93.30;102681.72;5076957;28;20056;-53
2022/04/30 04:36:01;;;;;;;19.73;8.47;;;;;;;13.50;91.72;102688.63;5080085;28;20051;-56
2022/04/30 04:38:30;;;;;;;27.10;10.53;;;;;;;13.48;91.31;102686.09;5086487;28;20043;-53
2022/04/30 04:40:55;;;;;;;16.60;8.65;;;;;;;13.39;93.78;102688.97;5088408;28;20104;-54
2022/04/30 04:43:20;;;;;;;15.70;6.63;;;;;;;13.39;93.00;102688.97;5079256;28;20045;-54
2022/04/30 04:45:46;;;;;;;18.15;8.40;;;;;;;13.49;91.53;102684.28;5092018;28;20040;-51
2022/04/30 04:48:12;;;;;;;20.80;8.33;;;;;;;13.50;91.75;102693.19;5081287;28;20079;-54
2022/04/30 04:50:39;;;;;;;18.67;8.25;;;;;;;13.44;92.24;102690.16;5085210;28;20041;-54
2022/04/30 04:53:05;;;;;;;24.42;8.80;;;;;;;13.47;92.41;102697.88;5089409;28;20036;-54
2022/04/30 04:55:30;;;;;;;17.83;8.80;;;;;;;13.43;92.53;102695.72;5078509;28;20052;-55
2022/04/30 04:57:55;;;;;;;18.07;8.87;;;;;;;13.41;92.43;102701.22;5090430;28;20092;-53
2022/04/30 05:00:21;;;;;;;21.53;7.80;;;;;;;13.44;92.54;102708.13;5083016;28;20029;-54
2022/04/30 05:02:47;;;;;;;15.18;8.02;;;;;;;13.50;92.04;102706.63;5082816;28;20040;-55
2022/04/30 05:05:14;;;;;;;18.63;9.30;;;;;;;13.37;92.17;102707.94;5090127;28;20052;-51
2022/04/30 05:07:39;;;;;;;19.98;8.73;;;;;;;13.45;92.10;102715.19;5078257;28;20345;-57
2022/04/30 05:10:05;;;;;;;20.60;8.85;;;;;;;13.45;92.34;102710.63;5088456;28;20045;-54
2022/04/30 05:12:31;;;;;;;27.02;9.32;;;;;;;13.39;93.46;102719.34;5084298;28;20091;-55
2022/04/30 05:14:56;;;;;;;21.67;9.20;;;;;;;13.44;92.87;102713.50;5081912;28;20043;-54
2022/04/30 05:17:22;;;;;;;20.43;9.27;;;;;;;13.45;92.44;102715.19;5091089;28;20043;-53
2022/04/30 05:19:48;;;;;;;24.23;11.00;;;;;;;13.48;92.04;102720.22;5078065;28;20036;-54
2022/04/30 05:22:14;;;;;;;20.03;8.50;;;;;;;13.36;93.99;102711.63;5087942;28;20171;-55
2022/04/30 05:24:40;;;;;;;25.75;10.07;;;;;;;13.51;92.55;102716.38;5075048;28;20357;-56
2022/04/30 05:27:08;;;;;;;16.92;7.47;;;;;;;13.53;92.18;102711.66;5088704;28;20057;-56
2022/04/30 05:29:34;;;;;;;18.92;8.30;;;;;;;13.50;93.04;102718.19;5077963;28;20083;-57
2022/04/30 05:32:00;;;;;;;19.63;8.60;;;;;;;13.56;92.65;102714.84;5089347;28;20101;-55
2022/04/30 05:34:25;;;;;;;16.73;8.00;;;;;;;13.60;91.86;102720.72;5074345;28;20033;-57
2022/04/30 05:36:51;;;;;;;18.50;8.13;;;;;;;13.80;89.96;102717.66;5086594;28;20075;-55
2022/04/30 05:39:16;;;;;;;19.00;8.87;;;;;;;13.79;89.52;102714.13;5078877;28;20056;-55
2022/04/30 05:41:42;;;;;;;20.33;9.03;;;;;;;13.84;88.49;102719.00;5090702;28;20265;-52
2022/04/30 05:44:07;;;;;;;18.33;8.10;;;;;;;14.01;87.56;102709.03;5079536;28;20032;-55
2022/04/30 05:46:32;;;;;;;15.97;8.27;;;;;;;13.93;87.96;102711.75;5084898;28;20041;-55
2022/04/30 05:48:58;;;;;;;15.05;7.50;;;;;;;13.74;89.92;102714.66;5086983;28;20059;-55
2022/04/30 05:51:24;;;;;;;19.57;8.00;;;;;;;13.78;90.33;102717.81;5077827;28;20041;-55
2022/04/30 05:53:49;;;;;;;18.83;7.80;;;;;;;13.99;88.50;102713.75;5090500;28;20317;-56
2022/04/30 05:56:14;;;;;;;16.33;7.57;;;;;;;14.01;87.53;102714.41;5081006;28;20041;-52
2022/04/30 05:58:40;;;;;;;13.77;7.87;;;;;;;13.88;89.83;102715.81;5083807;28;20041;-52
2022/04/30 06:01:05;;;;;;;16.63;7.37;;;;;;;13.93;88.86;102720.66;5088048;28;20059;-53
2022/04/30 06:03:33;;;;;;;16.27;7.83;;;;;;;14.14;86.91;102714.72;5077636;28;20101;-55
2022/04/30 06:05:58;;;;;;;20.10;8.70;;;;;;;14.54;81.59;102719.28;5088828;28;20032;-53
2022/04/30 06:08:24;;;;;;;14.32;7.72;;;;;;;14.32;83.99;102727.94;5079953;28;20040;-54
2022/04/30 06:10:50;;;;;;;17.70;7.60;;;;;;;14.92;84.29;102722.09;5085966;28;20037;-55
2022/04/30 06:13:15;;;;;;;16.33;7.33;;;;;;;14.59;80.99;102720.41;5077382;28;20266;-51
2022/04/30 06:15:41;;;;;;;14.77;8.67;;;;;;;14.71;81.30;102723.56;5075309;28;20037;-53
2022/04/30 06:18:08;;;;;;;13.13;7.00;;;;;;;14.72;81.51;102719.88;5087988;28;20029;-54
2022/04/30 06:20:34;;;;;;;14.45;7.55;;;;;;;14.86;78.94;102731.72;5083209;28;20056;-54
2022/04/30 06:23:00;;;;;;;15.90;6.80;;;;;;;14.96;77.80;102728.00;5079759;28;20055;-55
2022/04/30 06:25:27;;;;;;;15.07;6.93;;;;;;;15.06;78.25;102723.19;5090656;28;20055;-56
2022/04/30 06:27:52;;;;;;;9.30;5.28;;;;;;;15.10;76.62;102734.47;5069672;28;20048;-54
2022/04/30 06:30:18;;;;;;;11.70;6.17;;;;;;;15.15;74.16;102726.66;5071222;28;20041;-56
2022/04/30 06:32:43;;;;;;;10.83;6.03;;;;;;;15.17;72.26;102730.00;5071005;28;20028;-57
2022/04/30 06:35:08;;;;;;;13.57;5.83;;;;;;;15.15;71.88;102732.06;5062688;28;20038;-56
2022/04/30 06:37:34;;;;;;;11.40;6.13;;;;;;;15.46;71.68;102736.56;5066219;28;20029;-54
2022/04/30 06:39:59;;;;;;;17.03;6.50;;;;;;;15.68;72.74;102720.47;5069549;28;20059;-55
2022/04/30 06:42:25;;;;;;;10.30;5.63;;;;;;;15.84;70.74;102722.19;5062847;28;20109;-54
2022/04/30 06:44:51;;;;;;;9.10;5.30;;;;;;;16.09;63.41;102728.19;5067781;28;20033;-56
2022/04/30 06:47:18;;;;;;;10.45;5.28;;;;;;;16.19;63.58;102717.97;5071838;28;20036;-57
2022/04/30 06:49:44;;;;;;;15.35;5.38;;;;;;;16.40;61.52;102724.47;5060378;28;20083;-50
2022/04/30 06:52:09;;;;;;;8.63;4.97;;;;;;;16.55;61.51;102720.88;5068987;28;20037;-54
2022/04/30 06:57:21;;;;;;;10.30;5.47;;;;;;;17.29;57.66;102711.66;5066921;28;20029;-51
2022/04/30 06:59:51;;;;;;;8.63;4.72;;;;;;;17.43;56.34;102718.06;5060737;28;20091;-51
2022/04/30 07:02:18;;;;;;;8.32;4.25;;;;;;;17.91;52.96;102714.63;5068771;28;20041;-57
2022/04/30 07:04:46;;;;;;;8.27;4.95;;;;;;;17.83;53.84;102716.66;5066413;28;20033;-54
2022/04/30 07:07:12;;;;;;;10.55;4.07;;;;;;;17.81;51.75;102719.56;5087765;28;20112;-49
2022/04/30 07:09:39;;;;;;;8.48;4.50;;;;;;;17.70;52.48;102715.53;5076885;28;20067;-55
2022/04/30 07:12:09;;;;;;;7.35;4.90;;;;;;;18.12;53.18;102726.44;5076782;28;20054;-54
2022/04/30 07:14:40;;;;;;;13.37;5.50;;;;;;;17.74;55.40;102715.97;5075285;28;20071;-56
2022/04/30 07:17:10;;;;;;;8.87;4.40;;;;;;;17.98;50.88;102717.38;5086944;28;20277;-57
2022/04/30 07:19:36;;;;;;;8.20;4.57;;;;;;;18.10;52.26;102720.41;5076956;28;20278;-58
2022/04/30 07:22:02;;;;;;;13.15;5.55;;;;;;;18.61;52.17;102718.31;5078560;28;20273;-51
2022/04/30 07:24:28;;;;;;;8.53;4.43;;;;;;;18.86;51.70;102723.16;5084759;28;20060;-55
2022/04/30 07:26:54;;;;;;;11.07;4.82;;;;;;;19.11;50.38;102733.44;5069455;28;20293;-56
2022/04/30 07:29:19;;;;;;;10.23;5.00;;;;;;;18.75;49.79;102730.88;5060663;28;20040;-52
2022/04/30 07:31:45;;;;;;;10.80;6.00;;;;;;;18.56;51.72;102729.75;5070652;28;20092;-56
2022/04/30 07:34:10;;;;;;;11.20;5.23;;;;;;;18.79;49.49;102736.69;5058910;28;20071;-54
2022/04/30 07:36:37;;;;;;;9.18;4.88;;;;;;;18.94;49.86;102733.84;5061876;28;20025;-55
2022/04/30 07:39:03;;;;;;;12.17;4.90;;;;;;;18.71;53.34;102734.19;5062871;28;20045;-54
2022/04/30 07:41:29;;;;;;;10.63;5.30;;;;;;;18.37;53.00;102725.13;5089259;28;20345;-57
2022/04/30 07:43:55;;;;;;;12.52;4.97;;;;;;;18.63;52.45;102732.47;5064599;28;20033;-56
2022/04/30 07:46:23;;;;;;;12.20;4.82;;;;;;;18.76;53.11;102737.97;5061895;28;20059;-55
2022/04/30 07:48:50;;;;;;;11.77;5.67;;;;;;;18.87;53.61;102733.81;5071954;28;20092;-52
2022/04/30 07:51:18;;;;;;;10.60;5.13;;;;;;;18.64;52.66;102731.44;5064316;28;20262;-55
2022/04/30 07:53:45;;;;;;;9.83;5.70;;;;;;;18.77;54.93;102731.50;5058375;28;20550;-57
2022/04/30 07:56:10;;;;;;;12.55;5.65;;;;;;;18.71;55.45;102724.19;5081628;28;20292;-53
2022/04/30 07:58:37;;;;;;;10.38;5.47;;;;;;;18.52;54.02;102719.53;5084182;28;20041;-56
2022/04/30 08:01:03;;;;;;;10.98;6.13;;;;;;;18.60;56.24;102725.63;5088962;28;20032;-55
2022/04/30 08:03:29;;;;;;;11.70;6.47;;;;;;;18.84;55.92;102728.81;5079846;28;20033;-55
2022/04/30 08:05:54;;;;;;;12.70;6.07;;;;;;;18.48;57.36;102722.66;5095344;28;20083;-52
2022/04/30 08:08:20;;;;;;;12.10;5.78;;;;;;;18.65;56.16;102718.75;5089029;28;20039;-53
2022/04/30 08:10:45;;;;;;;14.37;6.53;;;;;;;18.81;56.04;102721.09;5074421;28;20072;-54
2022/04/30 08:13:12;;;;;;;;;;;;;;;18.92;54.71;102719.66;5074842;28;20056;-54
2022/04/30 08:15:43;;;;;;;12.33;5.73;;;;;;;19.32;52.73;102725.13;5090740;28;19932;-55
2022/04/30 08:18:11;;;;;;;8.77;5.23;;;;;;;19.59;52.26;102719.69;5074022;28;20052;-49
2022/04/30 08:20:38;;;;;;;15.97;7.37;;;;;;;19.64;50.84;102721.78;5083401;28;20261;-55
2022/04/30 08:23:06;;;;;;;13.07;5.77;;;;;;;19.61;50.34;102720.34;5094116;28;20281;-53
2022/04/30 08:25:31;;;;;;;13.67;5.57;;;;;;;19.55;49.56;102720.34;5078848;28;20274;-54
2022/04/30 08:27:57;;;;;;;14.48;6.93;;;;;;;19.62;48.58;102718.44;5091879;28;20282;-57
2022/04/30 08:30:22;;;;;;;12.60;6.25;;;;;;;19.61;48.76;102717.63;5082644;28;20036;-58
2022/04/30 08:32:48;;;;;;;15.93;7.97;;;;;;;19.79;46.18;102713.38;5085023;28;20048;-55
2022/04/30 08:35:13;;;;;;;8.68;5.40;;;;;;;19.69;47.06;102718.44;5090030;28;20068;-55
2022/04/30 08:37:39;;;;;;;14.90;5.73;;;;;;;20.26;45.01;102702.44;5094696;28;20028;-57
2022/04/30 08:40:05;;;;;;;11.03;5.97;;;;;;;20.72;44.23;102708.66;5079277;28;20112;-56
2022/04/30 08:42:31;;;;;;;12.60;6.78;;;;;;;20.66;42.69;102709.53;5087415;28;20037;-54
2022/04/30 08:44:56;;;;;;;10.48;5.28;;;;;;;21.30;43.72;102706.81;5086865;28;20047;-54
2022/04/30 08:47:22;;;;;;;17.75;8.30;;;;;;;21.28;43.14;102708.09;5080044;28;20048;-56
2022/04/30 08:49:48;;;;;;;11.00;5.72;;;;;;;20.71;42.77;102709.72;5091377;28;20064;-56
2022/04/30 08:52:15;;;;;;;10.45;5.55;;;;;;;20.94;42.03;102702.91;5080980;28;20040;-52
2022/04/30 08:54:41;;;;;;;11.73;5.00;;;;;;;21.14;42.53;102704.66;5085748;28;20044;-53
2022/04/30 08:57:06;;;;;;;;;;;;;;;21.17;41.51;102712.34;5089019;28;20063;-50
2022/04/30 08:59:32;;;;;;;12.23;5.20;;;;;;;21.27;40.73;102711.88;5078257;28;19905;-54
2022/04/30 09:01:58;;;;;;;10.45;4.93;;;;;;;21.61;40.91;102706.97;5091174;28;20036;-57
2022/04/30 09:04:26;;;;;;;9.30;4.85;;;;;;;21.30;41.25;102697.81;5082561;28;20065;-54
2022/04/30 09:06:55;;;;;;;10.73;4.87;;;;;;;21.40;40.49;102697.31;5083831;28;20036;-56
2022/04/30 09:09:23;;;;;;;11.57;5.40;;;;;;;21.77;40.38;102705.56;5090316;28;20261;-57
2022/04/30 09:11:50;;;;;;;10.80;5.10;;;;;;;21.99;40.12;102702.41;5078041;28;20273;-56
2022/04/30 09:14:22;;;;;;;;;;;;;;;22.05;39.86;102690.59;5088982;28;20755;-53
2022/04/30 09:16:50;;;;;;;10.37;4.70;;;;;;;21.89;39.61;102686.59;5085106;28;19979;-55
2022/04/30 09:19:15;;;;;;;8.07;4.57;;;;;;;21.99;39.07;102696.94;5080650;28;20376;-54
2022/04/30 09:21:48;;;;;;;11.18;4.13;;;;;;;22.74;37.74;102687.59;5090913;28;20273;-55
2022/04/30 09:24:15;;;;;;;8.37;4.77;;;;;;;23.05;36.81;102682.91;5080554;28;20063;-55
2022/04/30 09:26:41;;;;;;;10.93;4.57;;;;;;;23.42;36.17;102694.72;5085413;28;20292;-52
2022/04/30 09:29:23;;;;;;;9.95;3.83;;;;;;;24.26;34.06;102684.50;5087600;28;20035;-54
2022/04/30 09:31:53;;;;;;;10.90;4.67;;;;;;;24.87;33.34;102682.06;5077966;28;20043;-54
2022/04/30 09:39:50;;;;;;;5.90;3.70;;;;;;;24.41;32.95;102690.22;5077508;28;20100;-55
2022/04/30 09:42:16;;;;;;;;;;;;;;;23.74;33.06;102680.66;5088621;28;20085;-56
2022/04/30 09:44:43;;;;;;;6.93;3.53;;;;;;;25.12;31.38;102679.97;5080765;28;19951;-55
2022/04/30 09:47:09;;;;;;;7.70;3.50;;;;;;;26.13;30.31;102677.25;5087196;28;20032;-56
2022/04/30 09:55:06;;;;;;;6.70;3.47;;;;;;;25.71;29.46;102676.72;5074207;28;20037;-56
2022/04/30 09:57:35;;;;;;;9.20;3.50;;;;;;;25.32;29.91;102663.84;5090076;28;20024;-56
2022/04/30 10:00:03;;;;;;;9.27;4.37;;;;;;;25.40;29.70;102661.78;5061404;28;20032;-57
2022/04/30 10:02:38;;;;;;;8.63;3.00;;;;;;;25.14;29.35;102651.28;5085682;28;20041;-58
2022/04/30 10:05:07;;;;;;;9.13;4.00;;;;;;;24.54;31.56;102660.94;5086745;28;20029;-58
2022/04/30 10:07:33;;;;;;;8.93;3.80;;;;;;;24.75;30.96;102662.16;5077632;28;20113;-56
2022/04/30 10:10:02;;;;;;;7.83;3.90;;;;;;;25.01;30.33;102643.41;5060780;28;20063;-56
2022/04/30 10:12:35;;;;;;;8.87;3.80;;;;;;;26.49;28.83;102648.28;5085518;28;20048;-56
2022/04/30 10:15:31;;;;;;;6.67;3.43;;;;;;;27.01;27.64;102648.75;5080817;28;20037;-57
2022/04/30 10:17:57;;;;;;;7.93;5.57;;;;;;;28.18;27.02;102651.53;5089841;28;20033;-56
2022/04/30 10:20:29;;;;;;;9.47;4.90;;;;;;;28.09;26.83;102638.56;5080076;28;20043;-57
2022/04/30 10:22:57;;;;;;;5.83;3.63;;;;;;;27.37;27.39;102639.06;5082788;28;20059;-58
2022/04/30 10:25:33;;;;;;;7.17;3.10;;;;;;;26.57;27.50;102636.03;5088856;28;20095;-57
2022/04/30 10:28:03;;;;;;;5.93;3.53;;;;;;;26.32;27.69;102639.38;5076484;28;20063;-57
2022/04/30 10:30:28;;;;;;;5.37;3.23;;;;;;;25.66;28.34;102632.03;5086127;28;20128;-55
2022/04/30 10:32:59;;;;;;;11.13;5.07;;;;;;;24.94;29.55;102627.19;5084859;28;20036;-56
2022/04/30 10:35:31;;;;;;;8.10;3.50;;;;;;;25.50;29.66;102629.09;5078577;28;20074;-56
2022/04/30 10:38:12;;;;;;;8.43;3.87;;;;;;;25.10;29.46;102632.88;5084968;28;20029;-56
2022/04/30 10:40:50;;;;;;;10.23;4.27;;;;;;;25.17;29.60;102634.34;5082229;28;20040;-56
2022/04/30 10:43:36;;;;;;;9.03;3.60;;;;;;;25.38;29.39;102633.84;5079693;28;20044;-56
2022/04/30 10:46:16;;;;;;;8.93;4.50;;;;;;;25.40;29.36;102631.66;5076110;28;20036;-56
2022/04/30 10:48:42;;;;;;;11.27;4.30;;;;;;;24.92;29.96;102624.69;5083941;28;20109;-57
2022/04/30 10:51:16;;;;;;;12.38;5.13;;;;;;;24.98;29.89;102617.38;5085821;28;20032;-55
2022/04/30 10:53:46;;;;;;;7.30;4.23;;;;;;;24.95;29.96;102615.16;5075859;28;20045;-54
2022/04/30 10:56:13;;;;;;;9.27;3.40;;;;;;;24.99;29.77;102616.31;5078214;28;20033;-56
2022/04/30 10:58:41;;;;;;;7.50;4.00;;;;;;;25.15;30.07;102611.88;5084464;28;20096;-55
2022/04/30 11:01:18;;;;;;;6.57;3.40;;;;;;;25.01;30.07;102608.66;5085931;28;20051;-57
2022/04/30 11:03:48;;;;;;;7.15;3.50;;;;;;;25.16;30.37;102619.00;5080317;28;20044;-57
2022/04/30 11:06:25;;;;;;;5.80;3.33;;;;;;;25.23;30.04;102616.09;5091732;28;20032;-57
2022/04/30 11:08:58;;;;;;;6.82;3.38;;;;;;;25.34;28.63;102609.66;5087857;28;20154;-54
2022/04/30 11:11:24;;;;;;;8.00;4.43;;;;;;;25.25;28.89;102613.09;5082113;28;20063;-54
2022/04/30 11:13:59;;;;;;;9.38;4.47;;;;;;;24.43;31.29;102618.91;5085146;28;20033;-56
2022/04/30 11:16:45;;;;;;;7.20;3.63;;;;;;;23.91;32.97;102610.53;5083837;28;20044;-55
2022/04/30 11:19:13;;;;;;;10.40;3.80;;;;;;;23.84;33.21;102619.94;5084047;28;20040;-52
2022/04/30 11:21:49;;;;;;;8.87;3.63;;;;;;;23.74;33.53;102612.38;5093817;28;20044;-55
2022/04/30 11:24:29;;;;;;;7.97;3.78;;;;;;;22.60;33.96;102610.63;5082018;28;20045;-55
2022/04/30 11:27:00;;;;;;;7.47;3.63;;;;;;;23.94;33.01;102611.13;5086038;28;20136;-55
2022/04/30 11:29:26;;;;;;;5.23;3.17;;;;;;;23.87;33.13;102611.25;5091947;28;20040;-51
2022/04/30 11:31:52;;;;;;;;;;;;;;;23.39;32.63;102619.56;5080368;28;20039;-55
2022/04/30 11:34:19;;;;;;;5.95;2.90;;;;;;;23.76;33.43;102607.53;5085052;28;19934;-56
2022/04/30 11:36:48;;;;;;;7.70;3.20;;;;;;;23.63;32.75;102612.19;5086040;28;20028;-57
2022/04/30 11:39:14;;;;;;;9.77;3.27;;;;;;;23.87;32.63;102609.38;5083300;28;20514;-57
2022/04/30 11:41:41;;;;;;;6.63;2.93;;;;;;;23.53;33.57;102601.06;5093139;28;20288;-57
2022/04/30 11:44:15;;;;;;;8.07;4.47;;;;;;;23.29;33.17;102611.97;5080814;28;20268;-57
2022/04/30 11:46:43;;;;;;;5.80;3.40;;;;;;;23.27;33.37;102607.84;5087586;28;20250;-57
2022/04/30 11:49:17;;;;;;;7.40;3.70;;;;;;;23.40;32.79;102604.03;5088609;28;20281;-54
2022/04/30 11:51:43;;;;;;;5.70;2.97;;;;;;;23.62;33.30;102610.53;5079896;28;20301;-56
2022/04/30 11:54:11;;;;;;;4.47;3.03;;;;;;;23.49;33.43;102597.13;5092049;28;20266;-56
2022/04/30 11:56:38;;;;;;;9.63;3.63;;;;;;;22.74;34.52;102594.88;5084246;28;20051;-55